M I D A S
Marine Information and Data Acquisition System
Tripno 893 of the Zeeleeuw from 2005-05-02 06:51:35 to 2005-05-02 15:58:21
Back to CruiseResearch ActivitiesStationsMapUnderway DataData graphs

EquipmentUnitsComment
TimeDGPSUTC
LatitudeDGPSDM.mWGS84
LongitudeDGPSDM.mWGS84
TemperatureSBE03/SBE38deg celciusITS90
ConductivitySBE21S/mITS90
SalinitySBE21 Practical Salinity Units
ChlorophylAChelsea fluorimeterg/lCalibrated in Aceton
Missing or incorrect values are displayed as -999
Sea surface data collected by the RV Zeeleeuw from 2005-05-02 06:00:26 to 2005-05-02 16:09:17
Time Latitude Longitude Temperature Conductivity Salinity ChlorophylA
2005-05-02 06:01:31 51°13.594 2°56.102 19.2952 4.931037 33.147089 -0.781249
2005-05-02 06:02:31 51°13.594 2°56.101 19.268 4.930615 33.146909 -0.781249
2005-05-02 06:03:31 51°13.594 2°56.102 19.248 4.929982 33.145639 -0.814958
2005-05-02 06:04:31 51°13.594 2°56.102 19.2353 4.929349 33.14487 -0.781249
2005-05-02 06:05:31 51°13.594 2°56.101 19.2298 4.928927 33.145191 -0.74754
2005-05-02 06:06:31 51°13.595 2°56.102 19.2295 4.928399 33.145719 -0.814958
2005-05-02 06:07:31 51°13.595 2°56.102 19.224 4.927872 33.144744 -0.781249
2005-05-02 06:08:31 51°13.596 2°56.103 19.2252 4.927344 33.145272 -0.781249
2005-05-02 06:09:31 51°13.596 2°56.102 19.2291 4.926817 33.145299 -0.814958
2005-05-02 06:10:31 51°13.595 2°56.101 19.2335 4.926289 33.144825 -0.781249
2005-05-02 06:11:31 51°13.595 2°56.102 19.2412 4.925657 33.144557 -0.781249
2005-05-02 06:12:31 51°13.595 2°56.101 19.2448 4.925129 33.145086 -0.814958
2005-05-02 06:13:31 51°13.595 2°56.102 19.2522 4.924707 33.145409 -0.781249
2005-05-02 06:14:31 51°13.595 2°56.102 19.2628 4.923969 33.143844 -0.814958
2005-05-02 06:15:31 51°13.595 2°56.102 19.2695 4.923441 33.144373 -0.814958
2005-05-02 06:16:31 51°13.595 2°56.102 19.2694 4.922914 33.1439 -0.781249
2005-05-02 06:17:31 51°13.595 2°56.103 19.282 4.922386 33.14443 -0.781249
2005-05-02 06:18:31 51°13.595 2°56.103 19.3 4.921753 33.143662 -0.814958
2005-05-02 06:19:31 51°13.595 2°56.103 19.3015 4.921226 33.14369 -0.781249
2005-05-02 06:20:31 51°13.595 2°56.103 19.3006 4.920698 33.143719 -0.814958
2005-05-02 06:21:31 51°13.595 2°56.103 19.3243 4.920066 33.142951 -0.781249
2005-05-02 06:22:31 51°13.595 2°56.103 19.33 4.919433 33.142685 -0.814958
2005-05-02 06:23:32 51°13.596 2°56.103 19.3294 4.919011 33.144014 -0.814958
2005-05-02 06:24:31 51°13.595 2°56.103 19.3441 4.918378 33.143246 -0.781249
2005-05-02 06:25:31 51°13.595 2°56.103 19.3468 4.917745 33.143483 -0.781249
2005-05-02 06:26:31 51°13.595 2°56.103 19.3597 4.917112 33.143218 -0.781249
2005-05-02 06:27:31 51°13.595 2°56.103 19.3712 4.916479 33.14245 -0.74754
2005-05-02 06:28:31 51°13.596 2°56.104 19.3617 4.915951 33.143486 -0.814958
2005-05-02 06:29:31 51°13.596 2°56.104 19.3675 4.915319 33.143221 -0.781249
2005-05-02 06:30:31 51°13.595 2°56.103 19.3736 4.914686 33.142454 -0.74754
2005-05-02 06:31:31 51°13.595 2°56.103 19.3974 4.914053 33.142692 -0.781249
2005-05-02 06:32:32 51°13.595 2°56.103 19.4136 4.913314 33.142133 -0.781249
2005-05-02 06:33:31 51°13.594 2°56.103 19.4113 4.912787 33.143673 -0.814958
2005-05-02 06:34:31 51°13.594 2°56.103 19.4146 4.911943 33.142315 -0.781249
2005-05-02 06:35:31 51°13.594 2°56.102 19.4253 4.911415 33.142347 -0.814958
2005-05-02 06:36:31 51°13.595 2°56.102 19.4289 4.910677 33.142291 -0.814958
2005-05-02 06:37:31 51°13.595 2°56.102 19.4399 4.909939 33.141733 -0.781249
2005-05-02 06:38:31 51°13.595 2°56.102 19.4591 4.9092 33.141678 -0.781249
2005-05-02 06:39:31 51°13.596 2°56.101 19.4534 4.908356 33.141327 -0.814958
2005-05-02 06:40:31 51°13.596 2°56.1 19.4584 4.907829 33.142367 -0.781249
2005-05-02 06:41:31 51°13.596 2°56.101 19.4679 4.906879 33.140212 -0.781249
2005-05-02 06:42:31 51°13.595 2°56.101 19.4633 4.906246 33.14146 -0.781249
2005-05-02 06:43:31 51°13.593 2°56.102 19.485 4.905402 33.140104 -0.848668
2005-05-02 06:44:31 51°13.594 2°56.102 19.4939 4.904559 33.139755 -0.781249
2005-05-02 06:45:31 51°13.596 2°56.103 19.4989 4.903926 33.139997 -0.781249
2005-05-02 06:46:32 51°13.595 2°56.104 19.5109 4.903082 33.138641 -0.781249
2005-05-02 06:47:31 51°13.595 2°56.101 19.5212 4.902449 33.139388 -0.781249
2005-05-02 06:48:31 51°13.595 2°56.092 14.478 2.636495 19.968165 2.555982
2005-05-02 06:49:31 51°13.609 2°56.039 12.9534 2.566141 20.064653 6.061759
2005-05-02 06:50:31 51°13.637 2°55.958 12.4772 3.269614 27.165507 19.275845
2005-05-02 06:51:32 51°13.677 2°55.87 12.2355 3.387895 28.556173 19.747777
2005-05-02 06:52:31 51°13.712 2°55.778 12.1905 3.419708 28.991106 16.511674
2005-05-02 06:53:31 51°13.725 2°55.714 12.2041 3.44025 29.22563 15.736358
2005-05-02 06:54:31 51°13.722 2°55.709 12.3278 3.30964 27.93028 16.039742
2005-05-02 06:55:31 51°13.723 2°55.712 12.2731 3.317328 28.019604 16.275708
2005-05-02 06:56:31 51°13.746 2°55.695 12.232 3.374204 28.593764 16.882477
2005-05-02 06:57:31 51°13.85 2°55.626 12.2867 3.397167 28.834099 18.298272
2005-05-02 06:58:31 51°13.977 2°55.537 12.3234 3.312378 27.986147 19.073589
2005-05-02 06:59:31 51°14.113 2°55.435 12.3377 3.274569 27.596046 16.140871
2005-05-02 07:00:31 51°14.249 2°55.295 12.3936 3.346819 28.309085 11.859777
2005-05-02 07:01:31 51°14.367 2°55.068 12.2301 3.17137 26.551534 12.432836
2005-05-02 07:02:32 51°14.528 2°54.877 12.0356 3.374732 28.677108 11.960905
2005-05-02 07:03:31 51°14.71 2°54.7 11.9917 3.534011 30.271765 11.724939
2005-05-02 07:04:31 51°14.91 2°54.538 11.9672 3.696066 31.864164 11.050751
2005-05-02 07:05:31 51°15.106 2°54.367 11.9152 3.699649 31.916003 11.017042
2005-05-02 07:06:31 51°15.311 2°54.207 11.7897 3.665192 31.66907 11.286717
2005-05-02 07:07:31 51°15.511 2°54.04 11.8035 3.634635 31.424865 10.275435
2005-05-02 07:08:31 51°15.713 2°53.876 11.709 3.624626 31.365893 9.129315
2005-05-02 07:09:31 51°15.915 2°53.714 11.6689 3.584588 31.041076 7.780939
2005-05-02 07:10:31 51°16.119 2°53.558 11.5728 3.573104 30.97605 7.780939
2005-05-02 07:11:31 51°16.324 2°53.402 11.5212 3.555826 30.895229 7.848358
2005-05-02 07:12:31 51°16.529 2°53.243 11.5019 3.550453 30.860521 8.691093
2005-05-02 07:13:31 51°16.728 2°53.075 11.6292 3.539812 30.747991 8.353999
2005-05-02 07:14:31 51°16.918 2°52.888 11.6219 3.551611 30.777713 7.477554
2005-05-02 07:15:31 51°17.112 2°52.703 11.578 3.566677 30.950406 7.882067
2005-05-02 07:16:31 51°17.307 2°52.519 11.4561 3.5789 31.103357 8.252871
2005-05-02 07:17:31 51°17.503 2°52.335 11.3535 3.570683 31.142353 9.129315
2005-05-02 07:18:31 51°17.701 2°52.153 11.2837 3.551509 31.024496 9.668665
2005-05-02 07:19:31 51°17.896 2°51.969 11.2862 3.527804 30.837719 9.904631
2005-05-02 07:20:31 51°18.086 2°51.775 11.1309 3.574583 31.288779 8.927059
2005-05-02 07:21:31 51°18.279 2°51.585 10.8868 3.561416 31.349025 13.140734
2005-05-02 07:22:32 51°18.478 2°51.396 10.9124 3.545614 31.350137 14.826204
2005-05-02 07:23:31 51°18.672 2°51.212 10.9227 3.564683 31.453886 13.241862
2005-05-02 07:24:31 51°18.867 2°51.025 10.7624 3.565105 31.557434 14.017178
2005-05-02 07:25:31 51°19.061 2°50.838 10.6265 3.564369 31.655098 15.095879
2005-05-02 07:26:31 51°19.254 2°50.651 10.5382 3.575539 31.883255 15.972324
2005-05-02 07:27:31 51°19.446 2°50.472 10.536 3.576277 31.94392 15.197007
2005-05-02 07:28:31 51°19.641 2°50.295 10.5402 3.578911 31.971473 15.02846
2005-05-02 07:29:31 51°19.836 2°50.118 10.5323 3.569429 31.880872 15.02846
2005-05-02 07:30:31 51°20.033 2°49.941 10.5343 3.551623 31.70494 13.91605
2005-05-02 07:31:31 51°20.228 2°49.76 10.5172 3.558998 31.787885 14.084597
2005-05-02 07:32:31 51°20.428 2°49.585 10.562 3.569113 31.886161 14.387982
2005-05-02 07:33:31 51°20.629 2°49.412 10.5974 3.552255 31.677033 13.477828
2005-05-02 07:34:31 51°20.831 2°49.236 10.6068 3.551096 31.642589 12.264289
2005-05-02 07:35:31 51°21.028 2°49.047 10.6225 3.548146 31.607142 12.904768
2005-05-02 07:36:32 51°21.225 2°48.855 10.6298 3.560367 31.710684 12.500255
2005-05-02 07:37:31 51°21.413 2°48.669 10.4806 3.605779 32.219182 11.421554
2005-05-02 07:38:31 51°21.602 2°48.485 10.4882 3.62875 32.51831 10.443982
2005-05-02 07:39:31 51°21.791 2°48.301 10.494 3.627591 32.498873 10.781076
2005-05-02 07:40:31 51°21.98 2°48.116 10.4873 3.6258 32.481747 10.915913
2005-05-02 07:41:31 51°22.171 2°47.933 10.492 3.626221 32.491679 10.5114
2005-05-02 07:42:31 51°22.364 2°47.748 10.4787 3.620742 32.436382 10.713657
2005-05-02 07:43:32 51°22.56 2°47.561 10.4748 3.61853 32.421496 10.410272
2005-05-02 07:44:31 51°22.753 2°47.375 10.4602 3.621269 32.453801 10.612529
2005-05-02 07:45:31 51°22.949 2°47.187 10.4635 3.622112 32.46865 11.219298
2005-05-02 07:46:31 51°23.145 2°46.997 10.419 3.623904 32.497265 9.634956
2005-05-02 07:47:31 51°23.339 2°46.799 10.3802 3.627065 32.561867 10.106888
2005-05-02 07:48:32 51°23.534 2°46.601 10.3628 3.631491 32.667451 9.567537
2005-05-02 07:49:31 51°23.726 2°46.408 10.3319 3.646138 32.789311 7.039332
2005-05-02 07:50:32 51°23.921 2°46.218 10.2657 3.654041 32.930354 8.252871
2005-05-02 07:51:31 51°24.112 2°46.029 10.2315 3.65341 32.956192 8.016905
2005-05-02 07:52:31 51°24.305 2°45.838 10.2023 3.64909 32.966306 8.488836
2005-05-02 07:53:31 51°24.497 2°45.646 10.1891 3.648353 32.970633 8.387708
2005-05-02 07:54:31 51°24.692 2°45.456 10.163 3.648669 32.98703 8.893349
2005-05-02 07:55:31 51°24.886 2°45.263 10.1422 3.647299 32.993095 8.758512
2005-05-02 07:56:31 51°25.08 2°45.074 10.1244 3.646878 33.005774 6.837076
2005-05-02 07:57:31 51°25.275 2°44.886 10.1069 3.654044 33.092681 7.073042
2005-05-02 07:58:31 51°25.471 2°44.697 10.0873 3.649197 33.065985 6.971913
2005-05-02 07:59:31 51°25.669 2°44.515 10.0895 3.649829 33.087134 6.432563
2005-05-02 08:00:31 51°25.867 2°44.332 10.0687 3.666689 33.259449 5.859503
2005-05-02 08:01:32 51°26.068 2°44.152 10.0647 3.668059 33.285174 5.825794
2005-05-02 08:02:31 51°26.266 2°43.977 10.0639 3.666373 33.271126 6.533691
2005-05-02 08:03:31 51°26.463 2°43.799 10.0444 3.665952 33.266871 5.016768
2005-05-02 08:04:31 51°26.656 2°43.613 10.027 3.67533 33.386214 5.825794
2005-05-02 08:05:31 51°26.846 2°43.421 9.9257 3.678492 33.4631 5.589828
2005-05-02 08:06:31 51°27.039 2°43.232 9.9129 3.677334 33.509191 6.499982
2005-05-02 08:07:31 51°27.23 2°43.041 9.8784 3.676491 33.516445 5.926922
2005-05-02 08:08:31 51°27.425 2°42.857 9.9041 3.676175 33.544889 5.556118
2005-05-02 08:09:31 51°27.62 2°42.672 9.9027 3.676807 33.515888 5.859503
2005-05-02 08:10:31 51°27.814 2°42.481 9.8446 3.679126 33.55976 5.623537
2005-05-02 08:11:31 51°28.01 2°42.291 9.8287 3.680602 33.620083 6.398853
2005-05-02 08:12:31 51°28.208 2°42.107 9.8496 3.680286 33.627467 5.320153
2005-05-02 08:13:31 51°28.407 2°41.922 9.8531 3.679969 33.606846 5.859503
2005-05-02 08:14:31 51°28.605 2°41.737 9.852 3.679758 33.600923 5.387571
2005-05-02 08:15:31 51°28.801 2°41.549 9.7992 3.678494 33.601683 4.814512
2005-05-02 08:16:31 51°28.997 2°41.36 9.7576 3.682288 33.677408 5.050477
2005-05-02 08:17:31 51°29.195 2°41.173 9.8215 3.685555 33.740328 4.612255
2005-05-02 08:18:31 51°29.391 2°40.985 9.8046 3.691877 33.750698 4.88193
2005-05-02 08:19:31 51°29.586 2°40.794 9.7638 3.694091 33.806726 5.117896
2005-05-02 08:20:31 51°29.78 2°40.599 9.7385 3.693248 33.829417 5.185315
2005-05-02 08:21:31 51°29.976 2°40.403 9.7243 3.692405 33.839154 4.544836
2005-05-02 08:22:32 51°30.172 2°40.204 9.7175 3.69367 33.861999 5.219024
2005-05-02 08:23:31 51°30.378 2°40.035 9.693 3.695145 33.895437 5.084187
2005-05-02 08:24:31 51°30.583 2°39.866 9.6933 3.69072 33.857899 4.544836
2005-05-02 08:25:31 51°30.789 2°39.698 9.6739 3.693881 33.893252 4.511127
2005-05-02 08:26:31 51°30.994 2°39.528 9.6674 3.688507 33.855974 5.320153
2005-05-02 08:27:31 51°31.198 2°39.358 9.6598 3.694619 33.923038 5.050477
2005-05-02 08:28:31 51°31.401 2°39.185 9.6522 3.693881 33.927016 5.320153
2005-05-02 08:29:31 51°31.605 2°39.014 9.6463 3.681552 33.808639 5.286443
2005-05-02 08:30:31 51°31.809 2°38.841 9.6393 3.691142 33.90668 5.387571
2005-05-02 08:31:31 51°32.014 2°38.668 9.6336 3.698834 33.996139 5.185315
2005-05-02 08:32:31 51°32.219 2°38.495 9.6262 3.688191 33.891093 5.185315
2005-05-02 08:33:31 51°32.425 2°38.324 9.6211 3.682922 33.838736 4.848221
2005-05-02 08:34:31 51°32.636 2°38.148 9.6205 3.692723 33.944371 5.45499
2005-05-02 08:35:31 51°32.845 2°37.978 9.6272 3.689983 33.917104 4.780802
2005-05-02 08:36:31 51°33.055 2°37.803 9.6356 3.685346 33.861223 4.747093
2005-05-02 08:37:31 51°33.265 2°37.631 9.6262 3.693039 33.945298 5.522409
2005-05-02 08:38:31 51°33.477 2°37.456 9.6157 3.696832 33.987202 5.320153
2005-05-02 08:39:31 51°33.683 2°37.274 9.6005 3.689351 33.926782 5.4887
2005-05-02 08:40:31 51°33.885 2°37.085 9.6033 3.694198 33.977951 5.084187
2005-05-02 08:41:31 51°34.086 2°36.897 9.5708 3.689562 33.938175 5.589828
2005-05-02 08:42:31 51°34.285 2°36.709 9.5417 3.685031 33.92256 5.724665
2005-05-02 08:43:31 51°34.486 2°36.521 9.5471 3.692724 34.026127 5.320153
2005-05-02 08:44:31 51°34.684 2°36.33 9.5378 3.696728 34.058695 5.792084
2005-05-02 08:45:31 51°34.882 2°36.14 9.5398 3.690405 34.001573 4.612255
2005-05-02 08:46:31 51°35.081 2°35.952 9.5364 3.693988 34.042968 5.825794
2005-05-02 08:47:31 51°35.282 2°35.77 9.4878 3.694515 34.052244 4.174033
2005-05-02 08:48:31 51°35.482 2°35.586 9.4793 3.689668 34.048173 5.016768
2005-05-02 08:49:31 51°35.683 2°35.403 9.4715 3.688088 34.047437 6.297725
2005-05-02 08:50:31 51°35.883 2°35.217 9.4492 3.679236 33.96267 5.151606
2005-05-02 08:51:31 51°36.083 2°35.032 9.4576 3.68872 34.071009 6.264016
2005-05-02 08:52:31 51°36.283 2°34.847 9.4563 3.690301 34.077167 4.91564
2005-05-02 08:53:31 51°36.484 2°34.667 9.4638 3.696729 34.142484 5.320153
2005-05-02 08:54:31 51°36.685 2°34.486 9.4597 3.695675 34.128537 5.252734
2005-05-02 08:55:31 51°36.89 2°34.314 9.463 3.691355 34.083342 5.623537
2005-05-02 08:56:31 51°37.091 2°34.137 9.4697 3.691038 34.076211 5.4887
2005-05-02 08:57:31 51°37.286 2°33.937 9.4711 3.691565 34.079299 6.095469
2005-05-02 08:58:31 51°37.479 2°33.727 9.4815 3.692092 34.077729 5.724665
2005-05-02 08:59:31 51°37.672 2°33.513 9.4796 3.692092 34.075402 5.084187
2005-05-02 09:00:31 51°37.866 2°33.3 9.4859 3.693146 34.08235 5.387571
2005-05-02 09:01:31 51°38.061 2°33.087 9.4842 3.706107 34.209332 5.387571
2005-05-02 09:02:31 51°38.256 2°32.875 9.4724 3.706318 34.219288 6.162888
2005-05-02 09:03:31 51°38.448 2°32.662 9.4594 3.705054 34.22109 6.061759
2005-05-02 09:04:31 51°38.61 2°32.486 9.4391 3.70379 34.221337 5.690956
2005-05-02 09:05:31 51°38.7 2°32.387 9.4253 3.701893 34.219758 5.758375
2005-05-02 09:06:31 51°38.75 2°32.322 9.4111 3.700207 34.210204 5.657247
2005-05-02 09:07:31 51°38.798 2°32.275 9.4297 3.699786 34.21679 6.331435
2005-05-02 09:08:31 51°38.845 2°32.239 9.4127 3.700312 34.21519 6.837076
2005-05-02 09:09:31 51°38.89 2°32.214 9.4116 3.699259 34.212925 5.893212
2005-05-02 09:10:31 51°38.926 2°32.192 9.4033 3.698416 34.21283 6.803366
2005-05-02 09:11:31 51°38.954 2°32.177 9.4045 3.697783 34.204757 6.735947
2005-05-02 09:12:31 51°38.975 2°32.182 9.4039 3.698416 34.21283 7.477554
2005-05-02 09:13:31 51°38.993 2°32.206 9.4121 3.698416 34.206585 6.398853
2005-05-02 09:14:31 51°39.01 2°32.234 9.4094 3.699048 34.209974 7.646101
2005-05-02 09:15:31 51°39.029 2°32.257 9.4057 3.69831 34.204719 7.207879
2005-05-02 09:16:31 51°39.1 2°32.249 9.3957 3.697994 34.207708 7.309007
2005-05-02 09:17:31 51°39.159 2°32.332 9.3808 3.697783 34.211784 7.544973
2005-05-02 09:18:31 51°39.136 2°32.428 9.3699 3.697467 34.213213 7.612392
2005-05-02 09:19:31 51°39.094 2°32.422 9.3843 3.695887 34.213331 8.050614
2005-05-02 09:20:31 51°39.073 2°32.389 9.3883 3.696308 34.207518 7.14046
2005-05-02 09:21:31 51°39.056 2°32.356 9.382 3.696203 34.206432 8.185452
2005-05-02 09:22:31 51°39.043 2°32.326 9.3813 3.696308 34.205175 7.612392
2005-05-02 09:23:31 51°39.027 2°32.316 9.3803 3.695571 34.20226 8.151742
2005-05-02 09:24:31 51°39.018 2°32.283 9.3791 3.695676 34.203346 7.544973
2005-05-02 09:25:31 51°39.016 2°32.251 9.3769 3.69536 34.207118 7.679811
2005-05-02 09:26:31 51°39.002 2°32.237 9.3714 3.695255 34.20447 8.589965
2005-05-02 09:27:31 51°39.003 2°32.242 9.3803 3.695255 34.203689 8.219161
2005-05-02 09:28:31 51°39.003 2°32.254 9.389 3.695887 34.204736 7.646101
2005-05-02 09:29:31 51°39.023 2°32.265 9.3824 3.695571 34.199917 9.938341
2005-05-02 09:30:31 51°39.045 2°32.272 9.3755 3.695255 34.202126 9.163024
2005-05-02 09:31:31 51°39.075 2°32.264 9.3742 3.694306 34.193134 8.556255
2005-05-02 09:32:31 51°39.099 2°32.256 9.3702 3.694728 34.197477 9.061896
2005-05-02 09:33:31 51°39.1 2°32.289 9.3678 3.694306 34.201726 8.927059
2005-05-02 09:34:31 51°39.073 2°32.315 9.3693 3.693779 34.198639 8.893349
2005-05-02 09:35:31 51°39.045 2°32.309 9.3687 3.694095 34.196429 10.039469
2005-05-02 09:36:31 51°39.032 2°32.29 9.3813 3.694096 34.19721 7.780939
2005-05-02 09:37:31 51°39.018 2°32.278 9.388 3.694938 34.190279 8.084324
2005-05-02 09:38:31 51°39.007 2°32.255 9.3918 3.695255 34.19744 7.309007
2005-05-02 09:39:31 51°39.001 2°32.231 9.3973 3.695149 34.19167 7.71352
2005-05-02 09:40:31 51°39.007 2°32.223 9.3906 3.695465 34.191024 7.848358
2005-05-02 09:41:31 51°39.024 2°32.25 9.3853 3.695149 34.189328 8.724802
2005-05-02 09:42:31 51°39.039 2°32.282 9.3875 3.694411 34.187973 9.331571
2005-05-02 09:43:31 51°39.055 2°32.302 9.3875 3.695149 34.196354 8.353999
2005-05-02 09:44:31 51°39.046 2°32.264 9.4067 3.68988 34.138172 8.589965
2005-05-02 09:45:31 51°39.022 2°32.231 9.4029 3.692725 34.152666 7.74723
2005-05-02 09:46:31 51°39.003 2°32.226 9.4103 3.693568 34.159788 8.219161
2005-05-02 09:47:31 51°39.001 2°32.238 9.4099 3.694622 34.175318 8.28658
2005-05-02 09:48:31 51°39.003 2°32.26 9.4081 3.695465 34.18088 8.387708
2005-05-02 09:49:31 51°39.014 2°32.281 9.3991 3.695781 34.187257 7.275298
2005-05-02 09:50:31 51°39.023 2°32.31 9.397 3.695465 34.190243 8.724802
2005-05-02 09:51:32 51°39.033 2°32.337 9.3961 3.695254 34.186511 7.983195
2005-05-02 09:52:31 51°39.045 2°32.363 9.3997 3.695887 34.190683 9.095606
2005-05-02 09:53:31 51°39.057 2°32.387 9.3961 3.695465 34.185561 8.927059
2005-05-02 09:54:31 51°39.068 2°32.409 9.4005 3.695254 34.185731 8.320289
2005-05-02 09:55:31 51°39.081 2°32.428 9.4142 3.700207 34.229721 9.129315
2005-05-02 09:56:31 51°39.092 2°32.445 9.4098 3.700102 34.221607 8.252871
2005-05-02 09:57:31 51°39.104 2°32.461 9.4128 3.731822 34.544557 9.163024
2005-05-02 09:58:31 51°39.115 2°32.475 9.4118 3.731716 34.546623 8.960768
2005-05-02 09:59:31 51°39.127 2°32.487 9.4055 3.731084 34.547198 8.691093
2005-05-02 10:00:31 51°39.138 2°32.5 9.4034 3.730873 34.548178 10.342853
2005-05-02 10:01:31 51°39.133 2°32.517 9.3981 3.730768 34.544725 10.443982
2005-05-02 10:02:31 51°39.102 2°32.505 9.3927 3.730347 34.545897 8.893349
2005-05-02 10:03:31 51°39.072 2°32.445 9.3965 3.729925 34.544703 8.252871
2005-05-02 10:04:31 51°39.039 2°32.37 9.3962 3.717068 34.412102 7.410136
2005-05-02 10:05:31 51°39.014 2°32.288 9.3948 3.727712 34.517932 7.646101
2005-05-02 10:06:31 51°39.002 2°32.23 9.3935 3.72708 34.51535 7.983195
2005-05-02 10:07:32 51°38.999 2°32.199 9.3969 3.727817 34.521384 7.544973
2005-05-02 10:08:31 51°39.001 2°32.18 9.3963 3.729925 34.543914 8.927059
2005-05-02 10:09:32 51°39.004 2°32.168 9.4024 3.729082 34.535217 8.589965
2005-05-02 10:10:31 51°39.006 2°32.159 9.3997 3.730452 34.543041 8.960768
2005-05-02 10:11:31 51°38.985 2°32.165 9.3929 3.727923 34.523259 9.466409
2005-05-02 10:12:31 51°38.972 2°32.211 9.3955 3.724656 34.498225 7.74723
2005-05-02 10:13:31 51°38.983 2°32.227 9.3962 3.728766 34.532744 9.264153
2005-05-02 10:14:31 51°38.997 2°32.24 9.3933 3.725183 34.498147 8.252871
2005-05-02 10:15:32 51°39.012 2°32.254 9.3914 3.729293 34.540546 9.668665
2005-05-02 10:16:32 51°39.028 2°32.26 9.3968 3.728344 34.531549 9.870922
2005-05-02 10:17:31 51°39.047 2°32.227 9.3998 3.727501 34.519699 9.129315
2005-05-02 10:18:31 51°39.061 2°32.244 9.397 3.729503 34.537989 8.252871
2005-05-02 10:19:31 51°39.039 2°32.306 9.4075 3.725183 34.485549 8.353999
2005-05-02 10:20:31 51°38.998 2°32.262 9.4194 3.726974 34.505598 7.882067
2005-05-02 10:21:31 51°38.985 2°32.197 9.4028 3.726447 34.492291 7.848358
2005-05-02 10:22:31 51°38.991 2°32.183 9.4048 3.723918 34.477231 7.814648
2005-05-02 10:23:31 51°39 2°32.169 9.393 3.729398 34.535325 7.376426
2005-05-02 10:24:31 51°39.011 2°32.157 9.4049 3.728766 34.535898 9.163024
2005-05-02 10:25:31 51°39.023 2°32.174 9.4017 3.729609 34.533557 7.983195
2005-05-02 10:26:31 51°39.035 2°32.188 9.4003 3.729293 34.533449 9.702375
2005-05-02 10:27:31 51°39.047 2°32.199 9.3945 3.729082 34.53364 7.983195
2005-05-02 10:28:31 51°39.06 2°32.207 9.3942 3.72866 34.535599 9.837212
2005-05-02 10:29:31 51°39.074 2°32.213 9.3948 3.728555 34.533723 8.82593
2005-05-02 10:30:31 51°39.088 2°32.217 9.3941 3.728555 34.532935 9.500118
2005-05-02 10:31:31 51°39.102 2°32.219 9.399 3.72866 34.53008 9.264153
2005-05-02 10:32:31 51°39.117 2°32.221 9.4081 3.729187 34.530786 9.870922
2005-05-02 10:33:31 51°39.128 2°32.183 9.4075 3.729609 34.531193 9.466409
2005-05-02 10:34:31 51°39.096 2°32.147 9.4128 3.729609 34.530404 8.28658
2005-05-02 10:35:31 51°39.044 2°32.185 9.4215 3.730136 34.529534 7.612392
2005-05-02 10:36:32 51°39.005 2°32.23 9.4381 3.730768 34.529751 8.455127
2005-05-02 10:37:31 51°39.001 2°32.249 9.4247 3.731611 34.526628 8.118033
2005-05-02 10:38:31 51°39.007 2°32.26 9.4061 3.731611 34.537655 8.320289
2005-05-02 10:39:31 51°39.014 2°32.273 9.396 3.730136 34.536627 8.118033
2005-05-02 10:40:31 51°39.022 2°32.285 9.3975 3.729609 34.540653 8.927059
2005-05-02 10:41:32 51°39.031 2°32.296 9.3982 3.729714 34.538586 9.028187
2005-05-02 10:42:31 51°39.041 2°32.307 9.4062 3.729714 34.536221 8.994477
2005-05-02 10:43:31 51°39.051 2°32.317 9.4028 3.730452 34.539888 9.4327
2005-05-02 10:44:31 51°39.061 2°32.327 9.4108 3.730557 34.537821 9.365281
2005-05-02 10:45:31 51°39.071 2°32.337 9.4216 3.730979 34.538228 9.904631
2005-05-02 10:46:31 51°39.064 2°32.382 9.439 3.731295 34.537547 9.736084
2005-05-02 10:47:31 51°39.009 2°32.373 9.4481 3.734772 34.534015 8.387708
2005-05-02 10:48:31 51°38.994 2°32.282 9.5021 3.736774 34.528677 6.634819
2005-05-02 10:49:31 51°38.996 2°32.204 9.4655 3.737617 34.537355 7.005623
2005-05-02 10:50:31 51°39.007 2°32.176 9.4496 3.735931 34.538086 8.320289
2005-05-02 10:51:31 51°39.017 2°32.175 9.4397 3.734034 34.539009 8.084324
2005-05-02 10:52:31 51°39.027 2°32.178 9.4361 3.733086 34.538684 9.97205
2005-05-02 10:53:31 51°39.037 2°32.184 9.4248 3.73277 34.534639 9.4327
2005-05-02 10:54:31 51°39.047 2°32.188 9.4189 3.726552 34.481576 9.39899
2005-05-02 10:55:31 51°39.057 2°32.194 9.4229 3.725393 34.471988 10.140597
2005-05-02 10:56:31 51°39.069 2°32.201 9.4198 3.730241 34.523531 9.129315
2005-05-02 10:57:31 51°39.078 2°32.209 9.4197 3.724129 34.464457 10.747366
2005-05-02 10:58:31 51°39.089 2°32.217 9.4187 3.725604 34.478092 9.196734
2005-05-02 10:59:31 51°39.097 2°32.229 9.4483 3.731611 34.532141 11.017042
2005-05-02 11:00:31 51°39.107 2°32.239 9.4476 3.733824 34.532114 8.960768
2005-05-02 11:01:32 51°39.116 2°32.249 9.4371 3.733718 34.531815 7.949486
2005-05-02 11:02:31 51°39.126 2°32.258 9.4356 3.732348 34.533444 10.241725
2005-05-02 11:03:31 51°39.136 2°32.267 9.4451 3.732875 34.531788 9.870922
2005-05-02 11:04:31 51°39.147 2°32.273 9.4592 3.733402 34.530132 8.691093
2005-05-02 11:05:31 51°39.158 2°32.28 9.4605 3.734667 34.529782 9.264153
2005-05-02 11:06:31 51°39.17 2°32.287 9.4651 3.734772 34.529294 8.522546
2005-05-02 11:07:31 51°39.18 2°32.293 9.4875 3.735088 34.529403 8.421418
2005-05-02 11:08:31 51°39.191 2°32.299 9.4913 3.736669 34.529165 10.106888
2005-05-02 11:09:31 51°39.201 2°32.304 9.4686 3.736142 34.529244 7.882067
2005-05-02 11:10:31 51°39.211 2°32.309 9.4589 3.734772 34.528507 10.309144
2005-05-02 11:11:31 51°39.228 2°32.31 9.4524 3.73414 34.529862 8.118033
2005-05-02 11:12:31 51°39.255 2°32.278 9.4363 3.733297 34.530621 8.927059
2005-05-02 11:13:31 51°39.261 2°32.219 9.4782 3.731716 34.525352 8.724802
2005-05-02 11:14:32 51°39.236 2°32.175 9.4936 3.735931 34.523929 10.54511
2005-05-02 11:15:31 51°39.206 2°32.157 9.5143 3.738144 34.520774 8.556255
2005-05-02 11:16:31 51°39.184 2°32.143 9.4983 3.738355 34.526084 7.17417
2005-05-02 11:17:31 51°39.169 2°32.13 9.5128 3.736985 34.524558 7.71352
2005-05-02 11:18:31 51°39.157 2°32.118 9.5346 3.738776 34.52021 9.466409
2005-05-02 11:19:31 51°39.144 2°32.109 9.5128 3.740357 34.521551 8.421418
2005-05-02 11:20:31 51°39.133 2°32.106 9.4832 3.738249 34.526571 8.724802
2005-05-02 11:21:31 51°39.123 2°32.107 9.4635 3.734877 34.52566 9.567537
2005-05-02 11:22:31 51°39.116 2°32.109 9.4733 3.733929 34.519825 7.275298
2005-05-02 11:23:31 51°39.111 2°32.111 9.4614 3.734666 34.524276 8.758512
2005-05-02 11:24:32 51°39.107 2°32.114 9.4754 3.733823 34.519526 8.589965
2005-05-02 11:25:31 51°39.104 2°32.117 9.5045 3.735404 34.519291 9.4327
2005-05-02 11:26:31 51°39.102 2°32.119 9.5103 3.737301 34.517598 8.050614
2005-05-02 11:27:31 51°39.101 2°32.121 9.5146 3.738144 34.516847 9.4327
2005-05-02 11:28:32 51°39.1 2°32.124 9.5412 3.738881 34.516583 9.567537
2005-05-02 11:29:31 51°39.099 2°32.128 9.543 3.740567 34.515086 8.28658
2005-05-02 11:30:32 51°39.099 2°32.13 9.5533 3.741199 34.516094 8.050614
2005-05-02 11:31:31 51°39.1 2°32.133 9.5646 3.741937 34.51348 9.365281
2005-05-02 11:32:31 51°39.103 2°32.138 9.5697 3.742991 34.511765 7.71352
2005-05-02 11:33:31 51°39.106 2°32.143 9.5558 3.742569 34.513705 7.949486
2005-05-02 11:34:31 51°39.108 2°32.149 9.5388 3.740883 34.513629 10.208016
2005-05-02 11:35:31 51°39.111 2°32.154 9.5284 3.739513 34.514452 9.196734
2005-05-02 11:36:31 51°39.113 2°32.158 9.5226 3.739408 34.509445 8.691093
2005-05-02 11:37:31 51°39.114 2°32.163 9.5132 3.73846 34.511463 10.140597
2005-05-02 11:38:31 51°39.115 2°32.168 9.5201 3.737722 34.510941 9.163024
2005-05-02 11:39:32 51°39.119 2°32.17 9.5157 3.738249 34.510866 9.769794
2005-05-02 11:40:32 51°39.123 2°32.172 9.5215 3.738249 34.506157 8.691093
2005-05-02 11:41:31 51°39.126 2°32.174 9.5295 3.73846 34.50597 8.185452
2005-05-02 11:42:31 51°39.129 2°32.177 9.5395 3.738881 34.504813 7.915777
2005-05-02 11:43:31 51°39.131 2°32.18 9.5555 3.739303 34.508362 8.85964
2005-05-02 11:44:31 51°39.133 2°32.183 9.5408 3.739724 34.505636 8.185452
2005-05-02 11:45:31 51°39.135 2°32.186 9.5438 3.739197 34.504925 8.320289
2005-05-02 11:46:31 51°39.137 2°32.189 9.5646 3.74004 34.50418 8.82593
2005-05-02 11:47:31 51°39.138 2°32.192 9.5818 3.741199 34.502765 8.016905
2005-05-02 11:48:31 51°39.14 2°32.196 9.6073 3.740777 34.470248 8.657383
2005-05-02 11:49:32 51°39.141 2°32.199 9.6143 3.742674 34.469383 8.151742
2005-05-02 11:50:31 51°39.131 2°32.207 9.6255 3.743095 34.46511 8.960768
2005-05-02 11:51:31 51°39.104 2°32.213 9.6335 3.743622 34.462702 7.882067
2005-05-02 11:52:31 51°39.055 2°32.207 9.635 3.746151 34.4777 8.421418
2005-05-02 11:53:31 51°39.006 2°32.193 9.6176 3.743306 34.462584 8.185452
2005-05-02 11:54:32 51°38.973 2°32.19 9.6883 3.745625 34.485582 7.882067
2005-05-02 11:55:32 51°38.959 2°32.205 9.6645 3.748048 34.451876 6.971913
2005-05-02 11:56:31 51°38.953 2°32.215 9.6598 3.744992 34.445522 8.016905
2005-05-02 11:57:32 51°38.954 2°32.199 9.6331 3.744149 34.439223 8.151742
2005-05-02 11:58:31 51°38.959 2°32.214 9.6296 3.742041 34.436344 7.679811
2005-05-02 11:59:32 51°38.957 2°32.211 9.6063 3.746784 34.499819 7.949486
2005-05-02 12:00:31 51°38.963 2°32.214 9.6094 3.745098 34.495035 7.882067
2005-05-02 12:01:31 51°38.978 2°32.225 9.5852 3.744571 34.501366 8.28658
2005-05-02 12:02:31 51°38.982 2°32.224 9.5901 3.744044 34.495175 8.016905
2005-05-02 12:03:31 51°38.983 2°32.221 9.525 3.742042 34.502806 6.971913
2005-05-02 12:04:31 51°38.983 2°32.218 9.519 3.7373 34.501112 8.219161
2005-05-02 12:05:31 51°38.987 2°32.221 9.4838 3.735614 34.497895 9.4327
2005-05-02 12:06:31 51°39.01 2°32.252 9.4963 3.733402 34.497109 10.275435
2005-05-02 12:07:31 51°39.03 2°32.285 9.5016 3.734982 34.488252 8.960768
2005-05-02 12:08:31 51°39.039 2°32.328 9.6494 3.736141 34.488406 9.567537
2005-05-02 12:09:31 51°39.04 2°32.368 9.701 3.749207 34.486376 7.848358
2005-05-02 12:10:31 51°39.053 2°32.417 9.6854 3.752895 34.489038 7.780939
2005-05-02 12:11:32 51°39.099 2°32.418 9.7136 3.752052 34.488986 6.803366
2005-05-02 12:12:31 51°39.122 2°32.342 9.7404 3.753633 34.49113 7.578683
2005-05-02 12:13:31 51°39.111 2°32.27 9.7944 3.756373 34.491105 7.106751
2005-05-02 12:14:31 51°39.084 2°32.224 9.8228 3.761325 34.484134 7.309007
2005-05-02 12:15:31 51°39.066 2°32.202 9.9058 3.765224 34.475769 8.050614
2005-05-02 12:16:32 51°39.049 2°32.185 9.9306 3.77102 34.479795 8.522546
2005-05-02 12:17:31 51°39.033 2°32.172 9.8475 3.771547 34.486714 7.342717
2005-05-02 12:18:31 51°39.02 2°32.16 9.8211 3.76554 34.4821 6.432563
2005-05-02 12:19:31 51°39.008 2°32.15 9.767 3.761431 34.481322 8.118033
2005-05-02 12:20:31 51°38.994 2°32.141 9.7657 3.757637 34.472891 8.320289
2005-05-02 12:21:31 51°38.968 2°32.142 9.7177 3.757216 34.477142 7.544973
2005-05-02 12:22:31 51°38.947 2°32.149 9.6944 3.752052 34.474948 7.612392
2005-05-02 12:23:31 51°38.93 2°32.159 9.7005 3.750472 34.476698 7.915777
2005-05-02 12:24:31 51°38.917 2°32.169 9.7505 3.750999 34.475074 8.084324
2005-05-02 12:25:31 51°38.907 2°32.177 9.6535 3.754581 34.473557 8.589965
2005-05-02 12:26:31 51°38.897 2°32.182 9.6283 3.746889 34.475109 8.28658
2005-05-02 12:27:31 51°38.888 2°32.185 9.6696 3.745519 34.469655 8.522546
2005-05-02 12:28:31 51°38.881 2°32.185 9.6913 3.749207 34.471547 6.499982
2005-05-02 12:29:31 51°38.875 2°32.185 9.6998 3.750472 34.469679 7.814648
2005-05-02 12:30:31 51°38.864 2°32.201 9.7054 3.751736 34.469373 7.477554
2005-05-02 12:31:31 51°38.862 2°32.233 9.6459 3.750682 34.466379 8.219161
2005-05-02 12:32:32 51°38.865 2°32.255 9.6621 3.746151 34.47067 8.927059
2005-05-02 12:33:31 51°38.868 2°32.271 9.7075 3.748575 34.46273 8.219161
2005-05-02 12:34:31 51°38.871 2°32.283 9.7353 3.752052 34.4617 6.264016
2005-05-02 12:35:31 51°38.873 2°32.292 9.7639 3.75416 34.459902 7.71352
2005-05-02 12:36:31 51°38.875 2°32.298 9.7581 3.756162 34.465589 6.971913
2005-05-02 12:37:32 51°38.877 2°32.301 9.7441 3.755424 34.463494 8.455127
2005-05-02 12:38:31 51°38.878 2°32.302 9.7181 3.753843 34.46056 6.870785
2005-05-02 12:39:31 51°38.878 2°32.302 9.6975 3.751841 34.462659 7.005623
2005-05-02 12:40:31 51°38.878 2°32.301 9.672 3.750472 34.469679 7.983195
2005-05-02 12:41:31 51°38.88 2°32.304 9.6471 3.747732 34.468916 6.297725
2005-05-02 12:42:31 51°38.878 2°32.301 9.6434 3.745414 34.465451 6.196597
2005-05-02 12:43:31 51°38.877 2°32.298 9.6556 3.745308 34.459686 7.342717
2005-05-02 12:44:31 51°38.875 2°32.294 9.6437 3.746257 34.460821 7.477554
2005-05-02 12:45:31 51°38.873 2°32.289 9.624 3.745414 34.462328 7.106751
2005-05-02 12:46:31 51°38.871 2°32.284 9.6071 3.7334 34.360229 7.882067
2005-05-02 12:47:32 51°38.869 2°32.278 9.6087 3.73203 34.360984 7.578683
2005-05-02 12:48:31 51°38.866 2°32.272 9.603 3.730976 34.348619 8.151742
2005-05-02 12:49:31 51°38.864 2°32.266 9.6077 3.730976 34.350177 8.85964
2005-05-02 12:50:31 51°38.861 2°32.26 9.604 3.731714 34.354625 7.983195
2005-05-02 12:51:31 51°38.857 2°32.255 9.5986 3.741093 34.453947 8.050614
2005-05-02 12:52:31 51°38.854 2°32.25 9.6041 3.740777 34.455392 8.320289
2005-05-02 12:53:31 51°38.851 2°32.247 9.6197 3.741093 34.453165 7.679811
2005-05-02 12:54:31 51°38.848 2°32.242 9.6312 3.742463 34.450033 7.578683
2005-05-02 12:55:31 51°38.844 2°32.237 9.6442 3.743833 34.451588 7.780939
2005-05-02 12:56:32 51°38.84 2°32.231 9.6567 3.744676 34.450084 6.466272
2005-05-02 12:57:32 51°38.836 2°32.225 9.6527 3.745308 34.451102 8.151742
2005-05-02 12:58:31 51°38.835 2°32.221 9.6519 3.745203 34.448462 8.016905
2005-05-02 12:59:31 51°38.837 2°32.217 9.6487 3.744992 34.448642 9.331571
2005-05-02 13:00:32 51°38.841 2°32.21 9.618 3.743727 34.447385 8.016905
2005-05-02 13:01:32 51°38.847 2°32.204 9.6625 3.741515 34.447334 8.893349
2005-05-02 13:02:31 51°38.857 2°32.196 9.7886 3.747099 34.439046 7.207879
2005-05-02 13:03:31 51°38.872 2°32.194 9.8098 3.758585 34.434404 6.870785
2005-05-02 13:04:32 51°38.883 2°32.192 9.7437 3.757953 34.445803 8.084324
2005-05-02 13:05:31 51°38.891 2°32.192 9.7038 3.75163 34.441817 8.151742
2005-05-02 13:06:31 51°38.897 2°32.189 9.6201 3.74868 34.447439 6.634819
2005-05-02 13:07:32 51°38.903 2°32.184 9.57 3.740356 34.444816 8.118033
2005-05-02 13:08:32 51°38.908 2°32.179 9.5439 3.736035 34.440331 7.882067
2005-05-02 13:09:32 51°38.912 2°32.174 9.5471 3.73456 34.436129 9.129315
2005-05-02 13:10:31 51°38.915 2°32.172 9.5865 3.732769 34.436503 8.421418
2005-05-02 13:11:32 51°38.916 2°32.169 9.7562 3.73751 34.42734 9.061896
2005-05-02 13:12:31 51°38.916 2°32.166 9.8563 3.754686 34.41477 8.589965
2005-05-02 13:13:32 51°38.926 2°32.224 9.882 3.760482 34.435919 8.185452
2005-05-02 13:14:32 51°38.885 2°32.34 9.7359 3.760482 34.441349 7.983195
2005-05-02 13:15:31 51°38.776 2°32.443 9.8155 3.755107 34.416746 6.365144
2005-05-02 13:16:31 51°38.595 2°32.63 9.76 3.758058 34.423595 6.499982
2005-05-02 13:17:32 51°38.398 2°32.814 9.6808 3.750787 34.425417 7.309007
2005-05-02 13:18:32 51°38.2 2°32.994 9.7124 3.744043 34.4171 7.814648
2005-05-02 13:19:31 51°38.002 2°33.169 9.756 3.745518 34.408849 8.556255
2005-05-02 13:20:31 51°37.803 2°33.35 9.8179 3.749312 34.401784 7.342717
2005-05-02 13:21:31 51°37.605 2°33.531 9.8519 3.753948 34.400256 8.050614
2005-05-02 13:22:31 51°37.407 2°33.706 9.869 3.761219 34.374553 7.814648
2005-05-02 13:23:31 51°37.209 2°33.878 9.7351 3.753527 34.403708 7.17417
2005-05-02 13:24:32 51°37.01 2°34.049 9.6177 3.745413 34.386777 7.646101
2005-05-02 13:25:32 51°36.814 2°34.218 9.6182 3.736245 34.377711 8.353999
2005-05-02 13:26:32 51°36.625 2°34.397 9.575 3.734875 34.37925 8.050614
2005-05-02 13:27:31 51°36.438 2°34.585 9.584 3.732662 34.370586 7.511264
2005-05-02 13:28:31 51°36.249 2°34.78 9.5969 3.72771 34.334587 7.342717
2005-05-02 13:29:31 51°36.245 2°35.034 9.9028 3.729817 34.335954 7.207879
2005-05-02 13:30:31 51°36.433 2°34.98 9.9324 3.758373 34.320903 6.533691
2005-05-02 13:31:32 51°36.619 2°34.794 9.7114 3.755422 34.334058 7.309007
2005-05-02 13:32:32 51°36.804 2°34.604 9.636 3.738879 34.363448 6.499982
2005-05-02 13:33:31 51°36.988 2°34.414 9.6325 3.735718 34.357519 7.679811
2005-05-02 13:34:31 51°37.176 2°34.223 9.6073 3.733295 34.363043 7.915777
2005-05-02 13:35:32 51°37.369 2°34.039 9.6166 3.730239 34.362875 7.74723
2005-05-02 13:36:32 51°37.559 2°33.859 9.5804 3.732135 34.35739 7.342717
2005-05-02 13:37:32 51°37.746 2°33.672 9.653 3.726866 34.314259 7.780939
2005-05-02 13:38:32 51°37.933 2°33.487 9.7533 3.73635 34.353104 6.331435
2005-05-02 13:39:32 51°38.119 2°33.306 10.0107 3.750259 34.346343 7.780939
2005-05-02 13:40:32 51°38.287 2°33.084 9.954 3.76322 34.3417 7.039332
2005-05-02 13:41:31 51°38.438 2°32.83 9.851 3.759638 34.348423 6.60111
2005-05-02 13:42:31 51°38.574 2°32.592 9.7886 3.749838 34.325801 5.623537
2005-05-02 13:43:32 51°38.629 2°32.435 9.9834 3.745728 34.330281 6.5674
2005-05-02 13:44:32 51°38.674 2°32.34 10.0386 3.76617 34.308602 6.803366
2005-05-02 13:45:32 51°38.688 2°32.318 10.0681 3.771861 34.341001 5.117896
2005-05-02 13:46:31 51°38.679 2°32.304 9.9806 3.775971 34.397319 6.668529
2005-05-02 13:47:32 51°38.67 2°32.292 9.9547 3.764169 34.352114 6.870785
2005-05-02 13:48:32 51°38.66 2°32.282 9.9621 3.763115 34.34294 7.005623
2005-05-02 13:49:31 51°38.649 2°32.272 9.9535 3.762167 34.341 6.061759
2005-05-02 13:50:32 51°38.635 2°32.303 10.1171 3.763009 34.334936 6.837076
2005-05-02 13:51:31 51°38.528 2°32.379 10.1505 3.776813 34.308385 7.443845
2005-05-02 13:52:32 51°38.297 2°32.384 9.9818 3.781872 34.385675 7.915777
2005-05-02 13:53:32 51°38.059 2°32.386 9.7892 3.759533 34.392937 7.207879
2005-05-02 13:54:32 51°37.82 2°32.393 9.7629 3.748257 34.365407 7.71352
2005-05-02 13:55:32 51°37.582 2°32.421 9.8404 3.748679 34.351888 7.376426
2005-05-02 13:56:31 51°37.358 2°32.52 9.9115 3.752367 34.354689 5.792084
2005-05-02 13:57:32 51°37.157 2°32.71 9.9712 3.762483 34.33651 6.634819
2005-05-02 13:58:31 51°36.963 2°32.907 10.0181 3.761324 34.360956 6.129178
2005-05-02 13:59:32 51°36.76 2°33.088 9.8434 3.772282 34.329153 6.668529
2005-05-02 14:00:32 51°36.559 2°33.267 9.6289 3.747309 34.35882 7.14046
2005-05-02 14:01:32 51°36.355 2°33.435 9.5874 3.732978 34.338006 6.837076
2005-05-02 14:02:32 51°36.151 2°33.6 9.5792 3.727393 34.333681 8.252871
2005-05-02 14:03:32 51°35.948 2°33.768 9.5458 3.725391 34.324045 7.612392
2005-05-02 14:04:31 51°35.75 2°33.936 9.5489 3.724127 34.321197 7.71352
2005-05-02 14:05:31 51°35.55 2°34.102 9.5381 3.723811 34.318732 9.264153
2005-05-02 14:06:32 51°35.347 2°34.264 9.7 3.722546 34.315883 7.410136
2005-05-02 14:07:31 51°35.146 2°34.427 9.7982 3.744041 34.279052 7.039332
2005-05-02 14:08:31 51°34.942 2°34.597 9.7531 3.738562 34.3051 6.870785
2005-05-02 14:09:32 51°34.737 2°34.769 9.7323 3.738878 34.289743 6.533691
2005-05-02 14:10:31 51°34.539 2°34.941 9.7046 3.736771 34.280595 6.702238
2005-05-02 14:11:31 51°34.34 2°35.124 9.7083 3.732345 34.290358 6.837076
2005-05-02 14:12:32 51°34.143 2°35.315 9.7173 3.738035 34.285001 6.533691
2005-05-02 14:13:32 51°33.949 2°35.505 9.8055 3.738984 34.301661 7.207879
2005-05-02 14:14:32 51°33.763 2°35.708 9.9474 3.745095 34.299846 7.207879
2005-05-02 14:15:31 51°33.575 2°35.91 9.8354 3.749415 34.249782 7.342717
2005-05-02 14:16:31 51°33.384 2°36.109 9.8232 3.7354 34.197871 6.095469
2005-05-02 14:17:32 51°33.185 2°36.309 9.7746 3.733082 34.186556 6.533691
2005-05-02 14:18:31 51°32.99 2°36.506 9.7437 3.727392 34.181688 7.443845
2005-05-02 14:19:31 51°32.79 2°36.699 9.8253 3.730342 34.151683 6.668529
2005-05-02 14:20:32 51°32.593 2°36.905 9.887 3.732344 34.159013 5.960631
2005-05-02 14:21:31 51°32.402 2°37.107 10.139 3.738877 34.150242 6.264016
2005-05-02 14:22:31 51°32.21 2°37.311 9.9705 3.765957 34.11257 5.016768
2005-05-02 14:23:32 51°32.015 2°37.514 9.7562 3.739193 34.167279 5.926922
2005-05-02 14:24:32 51°31.824 2°37.715 9.7462 3.724019 34.147249 6.095469
2005-05-02 14:25:31 51°31.638 2°37.902 9.7153 3.72149 34.136068 6.702238
2005-05-02 14:26:31 51°31.446 2°38.093 9.7153 3.718751 34.128127 6.938204
2005-05-02 14:27:31 51°31.252 2°38.292 9.7718 3.719172 34.111616 6.870785
2005-05-02 14:28:32 51°31.055 2°38.496 9.9946 3.722228 34.109702 6.837076
2005-05-02 14:29:32 51°30.86 2°38.702 10.1306 3.754997 34.045919 6.533691
2005-05-02 14:30:32 51°30.666 2°38.902 9.9815 3.741721 34.082708 5.926922
2005-05-02 14:31:31 51°30.474 2°39.1 10.0235 3.736767 34.018747 5.252734
2005-05-02 14:32:32 51°30.277 2°39.303 9.9254 3.735503 34.022684 6.061759
2005-05-02 14:33:31 51°30.084 2°39.503 9.9929 3.727916 34.01126 5.994341
2005-05-02 14:34:32 51°29.885 2°39.706 10.4557 3.736556 33.981615 6.60111
2005-05-02 14:35:31 51°29.693 2°39.895 10.1348 3.758685 33.994595 6.129178
2005-05-02 14:36:31 51°29.497 2°40.089 10.0177 3.741508 33.952832 6.938204
2005-05-02 14:37:32 51°29.299 2°40.288 10.0896 3.727072 33.928823 5.960631
2005-05-02 14:38:31 51°29.105 2°40.481 10.1361 3.730233 33.891058 6.162888
2005-05-02 14:39:31 51°28.908 2°40.674 10.1206 3.727177 33.854845 7.241589
2005-05-02 14:40:31 51°28.713 2°40.869 10.1582 3.725069 33.810117 6.533691
2005-05-02 14:41:31 51°28.517 2°41.061 10.1187 3.727597 33.792689 6.129178
2005-05-02 14:42:31 51°28.321 2°41.257 10.0151 3.706101 33.675617 6.60111
2005-05-02 14:43:31 51°28.125 2°41.45 10.0248 3.700727 33.658893 6.634819
2005-05-02 14:44:31 51°27.931 2°41.647 10.0012 3.699146 33.646656 7.106751
2005-05-02 14:45:32 51°27.733 2°41.846 10.0154 3.704942 33.733297 7.309007
2005-05-02 14:46:31 51°27.54 2°42.038 10.1346 3.708103 33.696625 6.129178
2005-05-02 14:47:31 51°27.346 2°42.235 10.0808 3.713476 33.681716 5.320153
2005-05-02 14:48:31 51°27.151 2°42.436 10.0698 3.707365 33.665073 6.971913
2005-05-02 14:49:31 51°26.957 2°42.64 10.1691 3.705468 33.651914 6.938204
2005-05-02 14:50:31 51°26.761 2°42.839 10.2707 3.714529 33.627843 5.792084
2005-05-02 14:51:32 51°26.563 2°43.036 10.262 3.720325 33.646569 6.02805
2005-05-02 14:52:31 51°26.372 2°43.232 10.1661 3.720746 33.647073 6.803366
2005-05-02 14:53:32 51°26.18 2°43.432 10.3498 3.713476 33.681716 7.477554
2005-05-02 14:54:31 51°25.989 2°43.629 10.5233 3.726224 33.55905 6.702238
2005-05-02 14:55:31 51°25.799 2°43.829 10.5526 3.726117 33.433018 6.061759
2005-05-02 14:56:32 51°25.605 2°44.032 10.3251 3.718214 33.397493 6.129178
2005-05-02 14:57:31 51°25.416 2°44.227 10.3028 3.701566 33.39986 6.196597
2005-05-02 14:58:32 51°25.222 2°44.431 10.3825 3.6944 33.327163 6.5674
2005-05-02 14:59:31 51°25.031 2°44.629 10.4254 3.695032 33.2509 5.387571
2005-05-02 15:00:32 51°24.838 2°44.831 10.6075 3.693134 33.162214 6.938204
2005-05-02 15:01:31 51°24.649 2°45.027 10.5989 3.698296 33.119536 6.702238
2005-05-02 15:02:32 51°24.455 2°45.224 10.3819 3.69387 33.092176 6.129178
2005-05-02 15:03:32 51°24.262 2°45.419 10.5052 3.681964 33.060837 5.893212
2005-05-02 15:04:31 51°24.07 2°45.606 10.4414 3.685652 33.050992 6.398853
2005-05-02 15:05:31 51°23.877 2°45.798 10.5002 3.677433 33.046945 7.106751
2005-05-02 15:06:31 51°23.689 2°45.998 10.7971 3.680067 33.012007 7.71352
2005-05-02 15:07:31 51°23.504 2°46.201 10.8956 3.698925 32.864236 6.702238
2005-05-02 15:08:32 51°23.314 2°46.399 10.6065 3.683119 32.782358 6.5674
2005-05-02 15:09:31 51°23.127 2°46.592 10.4694 3.657199 32.716079 7.241589
2005-05-02 15:10:32 51°22.935 2°46.792 10.4641 3.650562 32.752376 8.893349
2005-05-02 15:11:32 51°22.746 2°46.986 10.5146 3.648139 32.71447 9.634956
2005-05-02 15:12:31 51°22.558 2°47.183 10.5223 3.64445 32.659673 8.85964
2005-05-02 15:13:32 51°22.365 2°47.389 10.4354 3.646241 32.671042 9.264153
2005-05-02 15:14:32 51°22.175 2°47.593 10.4016 3.632228 32.606924 9.702375
2005-05-02 15:15:32 51°21.988 2°47.793 10.4036 3.62833 32.581693 10.814785
2005-05-02 15:16:32 51°21.798 2°47.992 10.4338 3.625168 32.542215 12.904768
2005-05-02 15:17:31 51°21.613 2°48.185 10.5234 3.630436 32.523628 10.814785
2005-05-02 15:18:31 51°21.426 2°48.378 10.4998 3.621901 32.418605 10.106888
2005-05-02 15:19:32 51°21.237 2°48.572 10.748 3.613471 32.339723 10.5114
2005-05-02 15:20:31 51°21.054 2°48.76 10.57 3.600931 32.081402 9.938341
2005-05-02 15:21:31 51°20.868 2°48.95 10.5919 3.58576 32.021135 9.668665
2005-05-02 15:22:32 51°20.678 2°49.139 10.6429 3.581018 31.947375 9.4327
2005-05-02 15:23:31 51°20.493 2°49.326 10.8561 3.580069 31.894506 10.073178
2005-05-02 15:24:32 51°20.305 2°49.517 10.9885 3.598505 31.862481 11.253007
2005-05-02 15:25:31 51°20.119 2°49.707 10.8109 3.602718 31.80904 9.567537
2005-05-02 15:26:32 51°19.932 2°49.902 10.6937 3.587759 31.858794 13.983469
2005-05-02 15:27:32 51°19.745 2°50.101 10.7971 3.575328 31.813362 12.500255
2005-05-02 15:28:32 51°19.562 2°50.296 10.8245 3.573746 31.685927 12.668802
2005-05-02 15:29:32 51°19.365 2°50.464 11.3221 3.558572 31.411056 14.994751
2005-05-02 15:30:32 51°19.161 2°50.615 11.4964 3.540762 30.903676 12.028324
2005-05-02 15:31:32 51°18.956 2°50.763 11.3336 3.516214 30.600892 10.713657
2005-05-02 15:32:32 51°18.749 2°50.911 11.2297 3.491247 30.474059 12.264289
2005-05-02 15:33:32 51°18.542 2°51.057 11.1571 3.480292 30.424233 11.522683
2005-05-02 15:34:32 51°18.337 2°51.199 11.0555 3.467651 30.390071 13.3767
2005-05-02 15:35:32 51°18.129 2°51.346 11.0284 3.450165 30.276408 15.466683
2005-05-02 15:36:31 51°17.929 2°51.496 10.9692 3.461543 30.418153 16.949896
2005-05-02 15:37:32 51°17.728 2°51.67 10.9763 3.467337 30.517674 19.242136
2005-05-02 15:38:32 51°17.53 2°51.843 11.1025 3.47292 30.533067 20.152289
2005-05-02 15:39:32 51°17.327 2°52.02 11.2832 3.476184 30.472393 17.994888
2005-05-02 15:40:32 51°17.12 2°52.175 11.3141 3.479975 30.362291 18.096016
2005-05-02 15:41:32 51°16.912 2°52.33 11.3118 3.482187 30.360861 18.635366
2005-05-02 15:42:32 51°16.702 2°52.486 11.2792 3.477447 30.350216 19.376973
2005-05-02 15:43:32 51°16.492 2°52.644 11.3133 3.481029 30.393402 18.97246
2005-05-02 15:44:32 51°16.286 2°52.802 11.4311 3.498832 30.504249 18.331982
2005-05-02 15:45:32 51°16.081 2°52.951 11.6638 3.507364 30.489962 16.241999
2005-05-02 15:46:31 51°15.88 2°53.102 11.5817 3.471964 29.990967 16.646512
2005-05-02 15:47:31 51°15.667 2°53.222 11.4889 3.453214 29.899745 18.230853
2005-05-02 15:48:31 51°15.452 2°53.338 11.76 3.452267 29.953911 17.657794
2005-05-02 15:49:32 51°15.251 2°53.439 11.8123 3.482392 29.937569 16.545383
2005-05-02 15:50:32 51°15.066 2°53.537 11.738 3.491558 30.087972 18.736494
2005-05-02 15:51:32 51°14.907 2°53.627 11.7599 3.495456 30.177688 18.770204
2005-05-02 15:52:32 51°14.807 2°53.71 11.8947 3.505464 30.197932 19.141007
2005-05-02 15:53:32 51°14.705 2°53.815 11.9623 3.513891 30.213909 17.253281
2005-05-02 15:54:32 51°14.622 2°53.987 12.059 3.518841 30.136437 16.646512
2005-05-02 15:55:32 51°14.538 2°54.219 11.9048 3.522318 30.199324 17.522956
2005-05-02 15:56:31 51°14.458 2°54.49 11.854 3.522214 30.333711 18.770204
2005-05-02 15:57:32 51°14.406 2°54.78 12.0453 3.532117 30.391746 17.725212
2005-05-02 15:58:31 51°14.357 2°55.053 12.1576 3.542334 30.32542 16.71393
2005-05-02 15:59:31 51°14.27 2°55.245 12.4277 3.543071 30.284742 0.095195
2005-05-02 16:00:32 51°14.172 2°55.374 12.5292 0.599838 3.864398 -0.612702
2005-05-02 16:01:31 51°14.07 2°55.45 12.6642 0.1244 0.738629 -0.612702
2005-05-02 16:02:31 51°13.972 2°55.521 12.871 0.129392 0.772176 -0.646411
2005-05-02 16:03:32 51°13.855 2°55.602 12.8955 0.123152 0.734511 -0.646411
2005-05-02 16:04:32 51°13.751 2°55.728 12.9604 0.11608 0.691404 -0.646411
2005-05-02 16:05:32 51°13.678 2°55.868 13.0442 0.108281 0.643406 -0.646411
2005-05-02 16:06:32 51°13.632 2°55.974 13.1575 0.102354 0.606923 -0.612702
2005-05-02 16:07:31 51°13.606 2°56.062 13.4283 0.097987 0.580351 -0.612702
2005-05-02 16:08:31 51°13.595 2°56.1 13.5716 0.094763 0.560568 -0.646411